Tropical Cyclones
[Index]
Main Index Home Page Stock Weather Photos Extreme Storms Discussion Storm News and Storm Chasing Reports Tropical Cyclones / Hurricanes / Typhoons Weather Data and Links Wild Fires / Bushfires Weather Observation Techniques Weather Picture Catalogue Tornado Pictures and Reports Stock Video Footage and DVDs for sale
Season 2002-2003 Tropical Cyclone HAPE Track Map
Season 2002-2003 Summaries: [BoM-AU] [JTWC-AU] [JTWC-SIO] [JTWC-SPAC] [JTWC-SH]
<<- Previous TC | JTWC 2002-2003 Season | Next TC ->>

click for intensity scale information  Lat/long Grid: Show Hide

 Date Labels: Show Hide

Joint Typhoon Warning Centre Cyclone Data

Name: HAPE

09 Feb 2003 06:00 UTC to 15 Feb 2003 06:00 UTC

    date/time    lat    long     hPa   cat  kts
2003-02-09 06   12.0    65.9    1002         25          
2003-02-09 12   12.4    65.5    1002         25          
2003-02-09 18   12.8    65.1    1002         25          
2003-02-10 00   13.4    64.9    1000         30          
2003-02-10 06   14.0    64.7    1000         30          
2003-02-10 12   14.6    64.5     997         35          
2003-02-10 18   15.3    64.3     994    1    40          
2003-02-11 00   16.0    64.2     991    1    45          
2003-02-11 06   16.8    64.4     991    1    45          
2003-02-11 12   17.4    65.1     984    2    55          
2003-02-11 18   17.6    66.0     967    3    75          
2003-02-12 00   17.5    67.0     963    3    80          
2003-02-12 06   17.0    68.0     963    3    80          
2003-02-12 12   16.6    69.0     963    3    80          
2003-02-12 18   16.1    69.9     963    3    80          
2003-02-13 00   15.6    70.5     954    3    90          
2003-02-13 06   15.1    71.0     963    3    80          
2003-02-13 12   14.6    71.4     963    3    80          
2003-02-13 18   14.7    72.0     963    3    80          
2003-02-14 00   15.2    72.6     967    3    75          
2003-02-14 06   15.8    73.2     976    2    65          
2003-02-14 12   16.5    73.8     984    2    55          
2003-02-14 18   17.3    74.4     976    1    50          
2003-02-15 00   18.5    75.3     991    1    45          
2003-02-15 06   20.0    76.4     997         35          
Winds are 1-min average.

Tropical cyclone tracks developed by Michael Bath using data from the Joint Typhoon Warning Centre Best Tracks and Google Maps.


[Australian Severe Weather index] [Copyright Notice] [Email Contacts] [Search This Site] [Privacy Policy]
Document: tropical_cyclone_hape.htm Updated: 28 June 2017